Aviation Digital Data Service (ADDS)

Output produced by METARs form (1823 UTC 24 June 2018)
found at http://aviationweather.gov/adds/metars/
 
KPNE 241731Z 2418/2518 26007G16KT P6SM SCT040 
     TEMPO 2418/2421 BKN040 
     FM242100 27010G15KT P6SM BKN050 
     TEMPO 2422/2502 5SM -TSRA BKN035CB 
     FM250200 30006KT P6SM FEW050 SCT120 
     FM250600 32008KT P6SM SCT250 
     FM251300 34012KT P6SM FEW250